Time;durP1;ratioP1;P1;durP2;ratioP2;P2;SDS_P1;SDS_P2;PMS_P1;PMS_P2;Temp;Humidity;BMP_temperature;BMP_pressure;BME280_temperature;BME280_humidity;BME280_pressure;Samples;Min_cycle;Max_cycle;Signal;HPM_P1;HPM_P2
2021/03/04 00:01:37;;;;;;;18.77;11.07;;;10.10;98.50;;;;;;5092890;28;20222;-72
2021/03/04 00:04:04;;;;;;;17.63;10.65;;;10.10;98.30;;;;;;5092273;28;20563;-72
2021/03/04 00:06:30;;;;;;;16.42;10.77;;;9.90;99.20;;;;;;5095961;28;20198;-73
2021/03/04 00:08:56;;;;;;;18.73;11.35;;;9.90;99.00;;;;;;5097246;28;20289;-73
2021/03/04 00:11:23;;;;;;;18.77;10.80;;;9.90;98.80;;;;;;5096228;28;20221;-73
2021/03/04 00:13:50;;;;;;;14.52;10.13;;;10.00;98.60;;;;;;5096316;28;20314;-73
2021/03/04 00:16:16;;;;;;;12.70;8.95;;;10.00;98.30;;;;;;5096492;28;20313;-73
2021/03/04 00:18:42;;;;;;;14.57;9.27;;;9.90;98.50;;;;;;5097298;28;20205;-73
2021/03/04 00:21:09;;;;;;;17.38;8.75;;;9.80;98.10;;;;;;5096814;28;20313;-77
2021/03/04 00:23:35;;;;;;;19.95;8.75;;;9.80;97.80;;;;;;5096024;28;20213;-76
2021/03/04 00:26:01;;;;;;;15.02;8.65;;;9.70;97.40;;;;;;5096223;28;20194;-77
2021/03/04 00:28:28;;;;;;;16.05;9.52;;;9.80;97.60;;;;;;5097022;28;20202;-77
2021/03/04 00:30:55;;;;;;;17.40;9.95;;;9.80;98.00;;;;;;5097153;28;20229;-78
2021/03/04 00:33:21;;;;;;;15.73;8.85;;;9.90;98.00;;;;;;5096886;28;20202;-78
2021/03/04 00:35:47;;;;;;;16.48;9.40;;;9.90;97.70;;;;;;5096409;28;20218;-78
2021/03/04 00:38:14;;;;;;;18.13;9.85;;;9.90;97.70;;;;;;5097663;28;20202;-78
2021/03/04 00:40:40;;;;;;;20.35;9.55;;;9.90;97.60;;;;;;5096805;28;20218;-77
2021/03/04 00:43:07;;;;;;;18.75;8.68;;;10.00;96.20;;;;;;5096910;28;20198;-77
2021/03/04 00:45:34;;;;;;;12.30;7.25;;;9.90;96.40;;;;;;5097338;28;20299;-79
2021/03/04 00:48:02;;;;;;;13.32;8.00;;;9.90;96.00;;;;;;5098413;28;20292;-77
2021/03/04 00:50:29;;;;;;;16.73;8.77;;;9.90;96.10;;;;;;5097032;28;20282;-78
2021/03/04 00:52:55;;;;;;;11.57;7.63;;;9.90;96.20;;;;;;5097018;28;20247;-78
2021/03/04 00:55:21;;;;;;;17.25;7.63;;;9.90;96.10;;;;;;5096754;28;20604;-77
2021/03/04 00:57:48;;;;;;;10.13;6.95;;;9.70;96.20;;;;;;5097243;28;20293;-77
2021/03/04 01:00:16;;;;;;;14.25;8.43;;;9.70;96.30;;;;;;5097317;28;20650;-75
2021/03/04 01:02:43;;;;;;;12.35;7.97;;;9.70;96.30;;;;;;5097713;28;20229;-75
2021/03/04 01:05:10;;;;;;;13.57;8.00;;;9.70;95.90;;;;;;5098069;28;20194;-76
2021/03/04 01:07:37;;;;;;;10.43;7.75;;;9.70;95.90;;;;;;5097701;28;20200;-74
2021/03/04 01:10:06;;;;;;;11.48;7.93;;;9.70;95.90;;;;;;5096536;28;20222;-80
2021/03/04 01:12:32;;;;;;;12.35;7.47;;;9.50;96.90;;;;;;5098539;28;20206;-77
2021/03/04 01:14:58;;;;;;;12.23;6.90;;;9.50;97.20;;;;;;5096672;28;20206;-78
2021/03/04 01:17:25;;;;;;;11.45;7.50;;;9.50;97.00;;;;;;5096327;28;20594;-78
2021/03/04 01:19:52;;;;;;;15.32;8.50;;;9.50;97.10;;;;;;5098221;28;20244;-79
2021/03/04 01:22:19;;;;;;;12.27;8.23;;;9.50;96.80;;;;;;5097604;28;20288;-78
2021/03/04 01:24:45;;;;;;;15.82;8.70;;;9.60;96.80;;;;;;5096854;28;20202;-78
2021/03/04 01:27:12;;;;;;;13.48;8.10;;;9.70;96.70;;;;;;5096251;28;20340;-79
2021/03/04 01:29:38;;;;;;;14.82;8.77;;;9.70;96.30;;;;;;5096091;28;20293;-78
2021/03/04 01:32:05;;;;;;;11.43;8.05;;;9.70;96.80;;;;;;5096667;28;20293;-78
2021/03/04 01:34:31;;;;;;;12.70;7.97;;;9.70;96.50;;;;;;5095914;28;20615;-76
2021/03/04 01:36:58;;;;;;;13.98;7.47;;;9.60;95.80;;;;;;5093886;28;20249;-76
2021/03/04 01:39:25;;;;;;;13.60;7.82;;;9.60;96.10;;;;;;5096404;28;20237;-74
2021/03/04 01:41:52;;;;;;;12.05;7.65;;;9.60;95.90;;;;;;5096476;28;20308;-74
2021/03/04 01:44:18;;;;;;;12.25;8.13;;;9.70;96.30;;;;;;5096112;28;20292;-74
2021/03/04 01:46:45;;;;;;;11.48;7.72;;;9.30;96.30;;;;;;5095894;28;20232;-73
2021/03/04 01:49:12;;;;;;;12.00;7.25;;;9.10;97.40;;;;;;5096150;28;20564;-74
2021/03/04 01:51:38;;;;;;;10.45;7.03;;;9.20;97.40;;;;;;5096083;28;20621;-74
2021/03/04 01:54:06;;;;;;;11.73;7.57;;;9.20;97.20;;;;;;5096010;28;20264;-74
2021/03/04 01:56:33;;;;;;;12.82;8.13;;;9.30;96.60;;;;;;5095727;28;20767;-73
2021/03/04 01:59:00;;;;;;;13.70;7.97;;;9.40;96.70;;;;;;5096827;28;20201;-74
2021/03/04 02:01:26;;;;;;;14.60;7.55;;;9.40;96.50;;;;;;5096426;28;20312;-74
2021/03/04 02:03:52;;;;;;;14.25;7.85;;;9.50;96.50;;;;;;5096251;28;20292;-74
2021/03/04 02:06:21;;;;;;;10.52;7.13;;;9.50;96.00;;;;;;5095833;28;20209;-73
2021/03/04 02:08:54;;;;;;;12.38;8.30;;;9.40;96.10;;;;;;5096368;28;20255;-74
2021/03/04 02:11:28;;;;;;;14.05;8.57;;;9.50;95.90;;;;;;5096262;28;20763;-74
2021/03/04 02:14:02;;;;;;;13.38;8.90;;;9.50;96.00;;;;;;5096334;28;20648;-74
2021/03/04 02:16:32;;;;;;;12.77;8.85;;;9.50;95.90;;;;;;5095737;28;20718;-74
2021/03/04 02:19:01;;;;;;;15.07;9.15;;;9.50;96.00;;;;;;5095731;28;20202;-74
2021/03/04 02:21:37;;;;;;;13.80;9.30;;;9.40;96.40;;;;;;5096222;28;20290;-74
2021/03/04 02:24:31;;;;;;;11.95;9.02;;;9.40;97.10;;;;;;5096231;28;20251;-74
2021/03/04 02:27:03;;;;;;;15.57;8.93;;;9.40;96.30;;;;;;5095955;28;20209;-73
2021/03/04 02:29:35;;;;;;;15.07;9.10;;;9.40;96.90;;;;;;5095923;28;20198;-74
2021/03/04 02:32:02;;;;;;;12.48;8.43;;;9.40;97.20;;;;;;5096368;28;20197;-73
2021/03/04 02:34:29;;;;;;;14.60;9.20;;;9.40;96.90;;;;;;5096294;28;20232;-74
2021/03/04 02:36:58;;;;;;;16.52;9.13;;;9.40;96.70;;;;;;5096034;28;20285;-73
2021/03/04 02:39:26;;;;;;;11.50;6.90;;;9.30;96.40;;;;;;5096515;28;20202;-73
2021/03/04 02:41:54;;;;;;;15.90;8.80;;;9.30;95.30;;;;;;5095891;28;20218;-74
2021/03/04 02:44:23;;;;;;;14.65;9.30;;;9.30;95.70;;;;;;5095988;28;20214;-74
2021/03/04 02:46:50;;;;;;;12.63;8.32;;;9.30;96.50;;;;;;5095770;28;20549;-74
2021/03/04 02:49:18;;;;;;;14.70;7.97;;;9.30;96.60;;;;;;5096303;28;20241;-74
2021/03/04 02:51:46;;;;;;;10.52;6.80;;;9.30;95.60;;;;;;5096123;28;20218;-74
2021/03/04 02:54:14;;;;;;;11.93;6.43;;;9.30;95.50;;;;;;5095806;28;20739;-74
2021/03/04 02:56:42;;;;;;;14.82;6.93;;;9.40;95.20;;;;;;5095641;28;20222;-73
2021/03/04 02:59:09;;;;;;;9.10;6.30;;;9.40;94.40;;;;;;5096350;28;20197;-74
2021/03/04 03:01:39;;;;;;;15.20;8.40;;;9.30;94.80;;;;;;5096422;28;20229;-74
2021/03/04 03:04:06;;;;;;;10.20;7.20;;;9.10;95.80;;;;;;5095357;28;20247;-73
2021/03/04 03:06:34;;;;;;;11.75;7.55;;;9.10;96.50;;;;;;5094744;28;20712;-74
2021/03/04 03:09:03;;;;;;;11.60;7.82;;;9.20;96.70;;;;;;5094714;28;20198;-74
2021/03/04 03:11:30;;;;;;;15.05;9.38;;;9.30;96.80;;;;;;5094717;28;20226;-73
2021/03/04 03:13:58;;;;;;;13.77;9.65;;;9.40;96.40;;;;;;5094276;28;20202;-74
2021/03/04 03:16:26;;;;;;;15.05;8.60;;;9.40;96.40;;;;;;5094627;28;20218;-73
2021/03/04 03:18:54;;;;;;;16.55;9.38;;;9.40;96.50;;;;;;5094804;28;20743;-74
2021/03/04 03:21:20;;;;;;;16.13;9.85;;;9.30;96.40;;;;;;5094970;28;20222;-74
2021/03/04 03:23:47;;;;;;;14.55;9.38;;;9.00;97.40;;;;;;5095753;28;20288;-74
2021/03/04 03:26:13;;;;;;;14.43;8.65;;;8.90;97.80;;;;;;5094750;28;20197;-74
2021/03/04 03:28:40;;;;;;;18.38;7.60;;;9.00;97.30;;;;;;5095516;28;20285;-74
2021/03/04 03:31:07;;;;;;;11.45;7.55;;;9.10;96.80;;;;;;5095048;28;20313;-74
2021/03/04 03:33:34;;;;;;;10.98;7.10;;;9.10;96.10;;;;;;5095278;28;20198;-74
2021/03/04 03:36:02;;;;;;;11.70;6.38;;;9.20;95.50;;;;;;5094438;28;20308;-73
2021/03/04 03:38:29;;;;;;;9.77;6.50;;;9.30;95.20;;;;;;5094166;28;20198;-74
2021/03/04 03:40:56;;;;;;;12.82;6.32;;;9.20;95.40;;;;;;5097087;28;20226;-73
2021/03/04 03:43:24;;;;;;;9.82;5.85;;;9.20;95.90;;;;;;5098272;28;20623;-74
2021/03/04 03:45:51;;;;;;;10.88;6.35;;;9.20;96.00;;;;;;5098024;28;20205;-74
2021/03/04 03:48:21;;;;;;;9.40;6.05;;;9.20;96.00;;;;;;5098279;28;20664;-73
2021/03/04 03:50:51;;;;;;;11.73;6.45;;;9.10;95.40;;;;;;5098109;28;20225;-74
2021/03/04 03:53:19;;;;;;;11.43;6.15;;;9.10;95.40;;;;;;5098671;28;20263;-74
2021/03/04 03:55:48;;;;;;;12.77;6.68;;;9.10;95.30;;;;;;5097639;28;20663;-74
2021/03/04 03:58:16;;;;;;;6.20;4.85;;;9.10;95.20;;;;;;5098075;28;20289;-74
2021/03/04 04:00:44;;;;;;;10.63;6.70;;;9.10;94.90;;;;;;5098076;28;20221;-74
2021/03/04 04:03:11;;;;;;;7.85;5.63;;;8.80;94.40;;;;;;5097648;28;20738;-74
2021/03/04 04:05:38;;;;;;;9.52;6.30;;;8.80;95.00;;;;;;5098031;28;20566;-74
2021/03/04 04:08:05;;;;;;;11.10;5.60;;;8.90;95.20;;;;;;5098475;28;20202;-74
2021/03/04 04:10:34;;;;;;;9.60;5.00;;;9.00;94.90;;;;;;5097967;28;20213;-73
2021/03/04 04:13:00;;;;;;;12.23;6.05;;;9.10;94.80;;;;;;5098002;28;20210;-74
2021/03/04 04:15:28;;;;;;;8.80;5.93;;;9.10;94.50;;;;;;5098391;28;20712;-74
2021/03/04 04:17:58;;;;;;;12.90;5.45;;;9.00;94.00;;;;;;5097335;28;20731;-74
2021/03/04 04:20:24;;;;;;;7.88;5.72;;;8.80;95.10;;;;;;5097456;28;20278;-74
2021/03/04 04:22:52;;;;;;;8.80;6.03;;;8.60;94.90;;;;;;5098167;28;20292;-74
2021/03/04 04:25:20;;;;;;;9.05;4.90;;;8.40;94.60;;;;;;5098013;28;20202;-73
2021/03/04 04:27:49;;;;;;;8.70;5.63;;;8.40;95.30;;;;;;5097473;28;20198;-73
2021/03/04 04:30:16;;;;;;;9.90;6.28;;;8.50;95.90;;;;;;5097730;28;20313;-74
2021/03/04 04:32:42;;;;;;;8.45;5.20;;;8.60;95.80;;;;;;5097813;28;20543;-74
2021/03/04 04:35:10;;;;;;;9.75;5.45;;;8.60;95.50;;;;;;5097517;28;20209;-74
2021/03/04 04:37:36;;;;;;;8.45;5.32;;;8.70;95.10;;;;;;5097154;28;20309;-73
2021/03/04 04:40:04;;;;;;;8.77;5.55;;;8.80;95.10;;;;;;5097153;28;20233;-74
2021/03/04 04:42:30;;;;;;;9.18;5.90;;;8.90;94.60;;;;;;5098216;28;20722;-74
2021/03/04 04:44:57;;;;;;;8.35;6.05;;;8.90;94.40;;;;;;5097817;28;20215;-74
2021/03/04 04:47:24;;;;;;;11.52;5.88;;;8.90;94.80;;;;;;5097303;28;20202;-73
2021/03/04 04:49:50;;;;;;;9.45;6.13;;;8.80;94.80;;;;;;5097467;28;20206;-74
2021/03/04 04:52:16;;;;;;;9.52;6.13;;;8.80;95.00;;;;;;5097351;28;20241;-74
2021/03/04 04:54:43;;;;;;;9.85;6.88;;;8.70;95.50;;;;;;5097782;28;20537;-73
2021/03/04 04:57:09;;;;;;;11.27;6.47;;;8.70;95.90;;;;;;5096922;28;20218;-74
2021/03/04 04:59:35;;;;;;;11.73;6.60;;;8.70;95.90;;;;;;5097319;28;20237;-74
2021/03/04 05:02:03;;;;;;;10.43;7.03;;;8.70;95.90;;;;;;5097257;28;20304;-74
2021/03/04 05:04:30;;;;;;;12.55;7.20;;;8.70;96.20;;;;;;5097252;28;20270;-73
2021/03/04 05:06:56;;;;;;;11.25;7.65;;;8.70;96.20;;;;;;5096567;28;20669;-73
2021/03/04 05:09:22;;;;;;;7.07;5.70;;;8.60;95.90;;;;;;5097129;28;20229;-74
2021/03/04 05:11:49;;;;;;;12.30;6.30;;;8.50;95.60;;;;;;5096784;28;20699;-74
2021/03/04 05:14:15;;;;;;;9.88;5.97;;;8.60;95.70;;;;;;5096321;28;20210;-73
2021/03/04 05:16:42;;;;;;;8.82;5.50;;;8.60;95.70;;;;;;5096120;28;20232;-73
2021/03/04 05:19:09;;;;;;;8.45;6.25;;;8.40;96.00;;;;;;5096045;28;20292;-73
2021/03/04 05:21:35;;;;;;;7.28;5.80;;;8.30;96.70;;;;;;5096697;28;20265;-73
2021/03/04 05:24:01;;;;;;;8.95;5.93;;;8.30;96.30;;;;;;5096296;28;20205;-73
2021/03/04 05:26:28;;;;;;;12.45;6.25;;;8.40;95.80;;;;;;5095811;28;20233;-73
2021/03/04 05:28:54;;;;;;;10.05;6.32;;;8.40;95.50;;;;;;5096291;28;20209;-73
2021/03/04 05:31:20;;;;;;;6.38;5.13;;;8.30;95.50;;;;;;5095965;28;20604;-73
2021/03/04 05:33:47;;;;;;;8.82;6.10;;;8.30;95.60;;;;;;5095844;28;20202;-73
2021/03/04 05:36:14;;;;;;;11.25;6.72;;;8.30;95.30;;;;;;5096026;28;20929;-73
2021/03/04 05:38:40;;;;;;;8.68;5.40;;;8.30;95.10;;;;;;5095880;28;20244;-73
2021/03/04 05:41:08;;;;;;;8.90;5.90;;;8.20;94.90;;;;;;5095695;28;20305;-73
2021/03/04 05:43:36;;;;;;;12.70;5.70;;;8.20;95.30;;;;;;5095866;28;20209;-73
2021/03/04 05:46:02;;;;;;;13.98;6.20;;;8.30;95.30;;;;;;5096113;28;20578;-74
2021/03/04 05:48:30;;;;;;;14.95;7.63;;;8.30;95.60;;;;;;5096386;28;20297;-74
2021/03/04 05:50:59;;;;;;;12.18;7.05;;;8.30;95.90;;;;;;5096219;28;20274;-74
2021/03/04 05:53:26;;;;;;;13.27;7.30;;;8.30;96.20;;;;;;5095886;28;20206;-74
2021/03/04 05:55:54;;;;;;;10.38;6.28;;;8.40;95.90;;;;;;5095356;28;20674;-74
2021/03/04 05:58:21;;;;;;;9.57;6.60;;;8.40;95.80;;;;;;5096212;28;20202;-74
2021/03/04 06:00:47;;;;;;;8.38;6.28;;;8.40;95.40;;;;;;5095851;28;20366;-74
2021/03/04 06:03:13;;;;;;;9.63;5.50;;;8.40;95.10;;;;;;5095060;28;20724;-74
2021/03/04 06:05:40;;;;;;;11.32;5.40;;;8.40;95.20;;;;;;5096171;28;20219;-74
2021/03/04 06:08:07;;;;;;;7.45;5.28;;;8.50;95.30;;;;;;5095275;28;20666;-73
2021/03/04 06:10:37;;;;;;;9.85;5.97;;;8.50;94.60;;;;;;5095874;28;20217;-74
2021/03/04 06:13:05;;;;;;;10.30;5.60;;;8.50;94.80;;;;;;5096048;28;20202;-74
2021/03/04 06:15:31;;;;;;;11.35;5.40;;;8.50;94.70;;;;;;5096019;28;20205;-74
2021/03/04 06:17:59;;;;;;;9.45;5.50;;;8.50;94.90;;;;;;5095570;28;20228;-73
2021/03/04 06:20:44;;;;;;;8.60;5.30;;;8.50;94.60;;;;;;5095404;28;20232;-74
2021/03/04 06:23:10;;;;;;;9.48;5.18;;;8.50;94.30;;;;;;5096036;28;20252;-74
2021/03/04 06:25:38;;;;;;;8.45;5.53;;;8.50;94.00;;;;;;5095197;28;20206;-74
2021/03/04 06:28:05;;;;;;;10.95;5.78;;;8.60;94.10;;;;;;5094858;28;20304;-73
2021/03/04 06:30:36;;;;;;;11.35;6.03;;;8.60;95.00;;;;;;5095774;28;20245;-74
2021/03/04 06:33:04;;;;;;;8.25;6.30;;;8.60;94.70;;;;;;5095090;28;20364;-74
2021/03/04 06:35:32;;;;;;;8.50;5.97;;;8.30;93.90;;;;;;5095079;28;20205;-73
2021/03/04 06:37:59;;;;;;;8.50;5.93;;;8.20;94.70;;;;;;5094916;28;20675;-73
2021/03/04 06:40:26;;;;;;;12.00;6.68;;;8.30;95.00;;;;;;5095222;28;20234;-74
2021/03/04 06:42:54;;;;;;;11.18;6.85;;;8.40;95.70;;;;;;5095796;28;20243;-74
2021/03/04 06:45:30;;;;;;;9.68;6.80;;;8.40;95.60;;;;;;5094881;28;20300;-74
2021/03/04 06:48:11;;;;;;;11.25;6.82;;;8.50;95.80;;;;;;5095478;28;20288;-74
2021/03/04 06:50:39;;;;;;;10.23;6.90;;;8.50;96.10;;;;;;5095460;28;20225;-74
2021/03/04 06:53:13;;;;;;;11.10;6.53;;;8.50;96.30;;;;;;5094841;28;20289;-74
2021/03/04 06:55:50;;;;;;;16.70;7.32;;;8.60;96.20;;;;;;5095349;28;20198;-74
2021/03/04 06:58:24;;;;;;;11.43;6.60;;;8.60;96.40;;;;;;5094829;28;20248;-74
2021/03/04 07:01:02;;;;;;;10.23;6.28;;;8.70;96.30;;;;;;5095382;28;20572;-74
2021/03/04 07:03:38;;;;;;;14.32;7.95;;;8.70;95.80;;;;;;5095426;28;20202;-74
2021/03/04 07:06:06;;;;;;;12.60;6.30;;;8.80;96.30;;;;;;5095250;28;20288;-73
2021/03/04 07:08:36;;;;;;;9.93;6.38;;;8.90;96.20;;;;;;5094626;28;20627;-74
2021/03/04 07:11:04;;;;;;;11.60;7.07;;;8.90;96.10;;;;;;5094573;28;20236;-74
2021/03/04 07:13:33;;;;;;;11.40;6.70;;;9.00;95.80;;;;;;5095053;28;20228;-74
2021/03/04 07:16:05;;;;;;;14.05;7.13;;;8.90;97.30;;;;;;5094355;28;20200;-73
2021/03/04 07:18:36;;;;;;;9.18;6.70;;;8.70;96.80;;;;;;5095169;28;20206;-74
2021/03/04 07:21:03;;;;;;;9.85;6.93;;;8.70;97.90;;;;;;5094905;28;20791;-74
2021/03/04 07:23:29;;;;;;;10.50;6.57;;;8.80;97.60;;;;;;5095200;28;20331;-74
2021/03/04 07:25:57;;;;;;;9.35;6.95;;;8.90;98.20;;;;;;5094736;28;20288;-75
2021/03/04 07:28:24;;;;;;;9.85;6.22;;;9.00;98.10;;;;;;5095304;28;20206;-74
2021/03/04 07:30:51;;;;;;;11.90;8.25;;;9.00;98.80;;;;;;5095654;28;20253;-74
2021/03/04 07:33:18;;;;;;;11.63;8.05;;;9.00;97.30;;;;;;5094661;28;20205;-73
2021/03/04 07:35:46;;;;;;;16.73;8.10;;;8.90;97.70;;;;;;5094411;28;20297;-74
2021/03/04 07:38:23;;;;;;;15.80;8.18;;;8.80;97.90;;;;;;5094486;28;20229;-74
2021/03/04 07:41:03;;;;;;;13.27;7.70;;;8.70;98.10;;;;;;5094526;28;20298;-74
2021/03/04 07:43:30;;;;;;;13.07;8.35;;;8.70;98.50;;;;;;5094241;28;20679;-74
2021/03/04 07:45:57;;;;;;;11.60;7.60;;;8.80;98.30;;;;;;5094159;28;20305;-74
2021/03/04 07:48:23;;;;;;;21.83;8.50;;;8.80;98.20;;;;;;5094711;28;20202;-74
2021/03/04 07:51:01;;;;;;;13.63;7.95;;;8.90;98.20;;;;;;5094832;28;20221;-74
2021/03/04 07:53:27;;;;;;;13.52;9.20;;;9.10;98.40;;;;;;5094737;28;20264;-74
2021/03/04 07:55:54;;;;;;;10.80;7.65;;;9.20;96.80;;;;;;5094887;28;20198;-73
2021/03/04 07:58:20;;;;;;;13.38;7.90;;;9.40;97.80;;;;;;5094418;28;20231;-74
2021/03/04 08:00:46;;;;;;;13.05;7.85;;;9.70;98.30;;;;;;5094662;28;20275;-74
2021/03/04 08:03:14;;;;;;;15.98;8.20;;;9.90;95.60;;;;;;5094362;28;20208;-74
2021/03/04 08:05:43;;;;;;;14.30;8.10;;;10.00;96.30;;;;;;5094742;28;20226;-74
2021/03/04 08:08:11;;;;;;;12.80;7.97;;;10.00;95.10;;;;;;5095167;28;20202;-74
2021/03/04 08:10:44;;;;;;;15.95;7.85;;;10.20;95.70;;;;;;5095193;28;20313;-74
2021/03/04 08:13:11;;;;;;;11.50;8.60;;;10.20;95.70;;;;;;5094671;28;20206;-74
2021/03/04 08:15:41;;;;;;;13.40;9.57;;;10.00;94.90;;;;;;5094352;28;20571;-74
2021/03/04 08:18:19;;;;;;;16.63;9.27;;;9.90;95.50;;;;;;5094321;28;20575;-74
2021/03/04 08:20:46;;;;;;;15.90;8.82;;;9.80;96.50;;;;;;5094339;28;20236;-74
2021/03/04 08:23:12;;;;;;;20.98;8.77;;;9.90;96.20;;;;;;5094411;28;20343;-74
2021/03/04 08:25:41;;;;;;;15.35;9.65;;;10.10;96.00;;;;;;5087634;28;20210;-76
2021/03/04 08:28:08;;;;;;;13.23;8.85;;;10.30;95.40;;;;;;5091085;28;20308;-76
2021/03/04 08:30:38;;;;;;;13.73;7.80;;;10.50;93.40;;;;;;5099989;28;20324;-76
2021/03/04 08:33:06;;;;;;;13.32;9.15;;;10.70;93.50;;;;;;5101371;28;20202;-77
2021/03/04 08:35:36;;;;;;;16.23;10.35;;;10.90;93.60;;;;;;5100588;28;20206;-77
2021/03/04 08:38:05;;;;;;;17.63;10.50;;;11.10;93.10;;;;;;5098363;28;20707;-77
2021/03/04 08:40:40;;;;;;;16.90;11.05;;;11.20;93.00;;;;;;5099360;28;20305;-76
2021/03/04 08:43:14;;;;;;;17.27;11.15;;;11.30;91.90;;;;;;5099107;28;20275;-76
2021/03/04 08:45:40;;;;;;;9.02;6.80;;;11.20;92.10;;;;;;5097531;28;20717;-76
2021/03/04 08:48:09;;;;;;;9.32;6.38;;;11.30;90.60;;;;;;5096992;28;20198;-76
2021/03/04 08:50:40;;;;;;;9.27;5.32;;;11.40;90.00;;;;;;5097462;28;20250;-76
2021/03/04 08:53:12;;;;;;;8.23;5.63;;;11.60;83.10;;;;;;5099041;28;20225;-76
2021/03/04 08:55:45;;;;;;;10.40;5.25;;;11.90;81.10;;;;;;5100467;28;20202;-76
2021/03/04 08:58:12;;;;;;;10.23;5.07;;;12.10;77.90;;;;;;5102118;28;20285;-76
2021/03/04 09:00:39;;;;;;;11.05;6.30;;;12.20;76.60;;;;;;5102032;28;20332;-76
2021/03/04 09:03:09;;;;;;;8.30;5.30;;;12.40;74.60;;;;;;5096052;28;20205;-79
2021/03/04 09:05:37;;;;;;;8.95;5.38;;;12.50;75.30;;;;;;5095944;28;20238;-79
2021/03/04 09:08:11;;;;;;;6.97;5.00;;;12.60;73.60;;;;;;5095759;28;20247;-80
2021/03/04 09:10:46;;;;;;;8.35;5.28;;;12.70;73.00;;;;;;5095784;28;20230;-80
2021/03/04 09:13:20;;;;;;;8.65;4.53;;;12.70;73.00;;;;;;5095617;28;20186;-80
2021/03/04 09:15:49;;;;;;;7.30;4.55;;;12.90;72.10;;;;;;5095903;28;20198;-79
2021/03/04 09:18:16;;;;;;;8.63;4.70;;;13.10;71.00;;;;;;5097537;28;20229;-77
2021/03/04 09:20:45;;;;;;;8.63;4.80;;;13.20;70.40;;;;;;5097367;28;20715;-78
2021/03/04 09:23:12;;;;;;;10.48;5.68;;;13.20;69.50;;;;;;5099560;28;20289;-77
2021/03/04 09:25:38;;;;;;;10.27;4.97;;;13.30;68.50;;;;;;5098436;28;20206;-79
2021/03/04 09:28:08;;;;;;;8.13;4.90;;;13.20;68.30;;;;;;5099642;28;20202;-78
2021/03/04 09:30:34;;;;;;;9.32;4.65;;;13.30;68.10;;;;;;5099271;28;20233;-74
2021/03/04 09:33:01;;;;;;;10.32;6.07;;;13.30;68.20;;;;;;5097092;28;20360;-74
2021/03/04 09:35:27;;;;;;;8.20;4.75;;;13.40;68.10;;;;;;5096641;28;20197;-72
2021/03/04 09:38:05;;;;;;;8.80;5.53;;;13.50;68.20;;;;;;5095073;28;20752;-73
2021/03/04 09:40:32;;;;;;;8.02;4.75;;;13.60;68.00;;;;;;5096238;28;20222;-73
2021/03/04 09:42:58;;;;;;;9.15;5.53;;;13.70;67.80;;;;;;5096123;28;20293;-73
2021/03/04 09:45:24;;;;;;;7.30;4.38;;;13.80;66.90;;;;;;5095998;28;20236;-73
2021/03/04 09:47:53;;;;;;;10.05;5.57;;;13.70;66.70;;;;;;5096388;28;20287;-73
2021/03/04 09:50:24;;;;;;;7.55;4.63;;;13.70;67.30;;;;;;5096168;28;20768;-73
2021/03/04 09:53:02;;;;;;;10.90;5.43;;;13.70;67.50;;;;;;5096431;28;20621;-73
2021/03/04 09:55:37;;;;;;;7.45;5.15;;;13.80;67.20;;;;;;5096457;28;20201;-73
2021/03/04 09:58:10;;;;;;;8.40;4.90;;;13.80;68.40;;;;;;5096574;28;20218;-73
2021/03/04 10:00:36;;;;;;;8.23;4.95;;;13.90;68.40;;;;;;5096766;28;20226;-73
2021/03/04 10:03:07;;;;;;;9.95;5.13;;;13.90;67.60;;;;;;5097074;28;20208;-73
2021/03/04 10:05:34;;;;;;;11.55;5.40;;;14.00;68.10;;;;;;5095907;28;20360;-73
2021/03/04 10:08:09;;;;;;;13.15;5.50;;;14.10;67.90;;;;;;5095661;28;20204;-73
2021/03/04 10:10:36;;;;;;;7.32;4.90;;;14.20;68.20;;;;;;5095964;28;20288;-73
2021/03/04 10:13:02;;;;;;;8.25;6.00;;;14.20;69.60;;;;;;5096137;28;20252;-73
2021/03/04 10:15:32;;;;;;;7.18;4.90;;;14.30;67.40;;;;;;5095968;28;20206;-73
2021/03/04 10:18:00;;;;;;;9.18;5.78;;;14.40;67.80;;;;;;5095257;28;20225;-73
2021/03/04 10:20:27;;;;;;;12.73;5.30;;;14.60;68.70;;;;;;5096087;28;20257;-73
2021/03/04 10:22:53;;;;;;;6.22;5.30;;;14.80;66.40;;;;;;5095916;28;20204;-73
2021/03/04 10:25:22;;;;;;;7.70;5.40;;;15.10;66.00;;;;;;5095739;28;20589;-73
2021/03/04 10:27:49;;;;;;;7.35;4.82;;;15.30;65.90;;;;;;5095141;28;20204;-72
2021/03/04 10:30:16;;;;;;;11.35;5.57;;;15.50;65.10;;;;;;5095081;28;20228;-73
2021/03/04 10:32:43;;;;;;;8.93;5.53;;;15.80;63.60;;;;;;5095962;28;20723;-73
2021/03/04 10:35:14;;;;;;;7.10;5.20;;;16.20;63.20;;;;;;5095556;28;20201;-74
2021/03/04 10:37:42;;;;;;;9.82;5.70;;;16.40;61.80;;;;;;5095468;28;20311;-73
2021/03/04 10:40:10;;;;;;;8.25;5.30;;;16.50;61.30;;;;;;5095425;28;20320;-74
2021/03/04 10:42:37;;;;;;;10.05;5.50;;;17.10;61.70;;;;;;5095483;28;20671;-73
2021/03/04 10:45:05;;;;;;;9.15;6.25;;;17.60;60.00;;;;;;5095029;28;20682;-73
2021/03/04 10:47:31;;;;;;;7.78;5.45;;;17.70;57.90;;;;;;5094976;28;20199;-73
2021/03/04 10:49:58;;;;;;;7.53;5.78;;;17.70;59.70;;;;;;5094467;28;20293;-73
2021/03/04 10:52:25;;;;;;;8.80;5.60;;;17.40;58.10;;;;;;5095659;28;20212;-73
2021/03/04 10:54:52;;;;;;;10.77;6.30;;;17.80;58.10;;;;;;5095890;28;20293;-74
2021/03/04 10:57:18;;;;;;;13.45;7.88;;;18.00;58.00;;;;;;5094579;28;20222;-73
2021/03/04 10:59:46;;;;;;;10.70;7.55;;;17.80;58.50;;;;;;5094915;28;20556;-74
2021/03/04 11:02:12;;;;;;;11.25;7.40;;;17.40;58.10;;;;;;5095074;28;20198;-74
2021/03/04 11:04:38;;;;;;;10.13;7.35;;;17.00;60.50;;;;;;5095395;28;20605;-74
2021/03/04 11:07:05;;;;;;;10.68;7.45;;;16.90;59.90;;;;;;5094459;28;20237;-73
2021/03/04 11:09:31;;;;;;;12.80;7.50;;;17.00;61.20;;;;;;5095372;28;20208;-74
2021/03/04 11:11:57;;;;;;;10.65;6.90;;;17.00;60.60;;;;;;5095497;28;20313;-74
2021/03/04 11:14:23;;;;;;;13.30;8.27;;;17.20;60.00;;;;;;5095209;28;20293;-74
2021/03/04 11:16:51;;;;;;;12.75;6.65;;;17.60;60.50;;;;;;5094732;28;20222;-73
2021/03/04 11:19:19;;;;;;;11.88;6.53;;;18.10;59.20;;;;;;5095151;28;20293;-74
2021/03/04 11:21:46;;;;;;;8.00;5.40;;;18.50;58.10;;;;;;5095655;28;20722;-74
2021/03/04 11:24:12;;;;;;;11.43;7.00;;;19.00;56.30;;;;;;5095387;28;20203;-74
2021/03/04 11:26:39;;;;;;;8.80;6.03;;;19.20;55.40;;;;;;5095901;28;20445;-73
2021/03/04 11:29:06;;;;;;;11.43;6.20;;;19.60;55.00;;;;;;5096608;28;20493;-74
2021/03/04 11:31:33;;;;;;;12.17;6.77;;;20.00;53.40;;;;;;5095904;28;20553;-74
2021/03/04 11:34:00;;;;;;;8.80;6.33;;;20.00;52.60;;;;;;5096264;28;20883;-74
2021/03/04 11:36:29;;;;;;;12.87;6.40;;;20.10;53.50;;;;;;5096274;28;20448;-73
2021/03/04 11:38:56;;;;;;;11.13;6.63;;;19.90;52.50;;;;;;5095759;28;20444;-74
2021/03/04 11:41:22;;;;;;;12.13;7.25;;;19.40;53.30;;;;;;5094332;28;20810;-74
2021/03/04 11:43:49;;;;;;;9.07;6.47;;;18.60;54.30;;;;;;5095291;28;20203;-74
2021/03/04 11:46:15;;;;;;;9.45;6.60;;;17.70;55.70;;;;;;5095358;28;20205;-73
2021/03/04 11:48:41;;;;;;;15.98;6.75;;;17.50;56.20;;;;;;5096073;28;20202;-74
2021/03/04 11:51:09;;;;;;;10.38;7.07;;;17.10;57.30;;;;;;5095973;28;20316;-74
2021/03/04 11:53:35;;;;;;;11.57;7.13;;;17.00;58.10;;;;;;5097182;28;20231;-74
2021/03/04 11:56:01;;;;;;;10.68;6.30;;;16.90;58.30;;;;;;5096182;28;20311;-73
2021/03/04 11:58:28;;;;;;;8.52;6.55;;;16.90;57.00;;;;;;5095176;28;20755;-74
2021/03/04 12:00:55;;;;;;;10.45;5.90;;;17.00;57.50;;;;;;5095430;28;20320;-74
2021/03/04 12:03:22;;;;;;;8.70;5.75;;;17.20;58.10;;;;;;5098757;28;20299;-74
2021/03/04 12:05:49;;;;;;;8.15;6.63;;;17.20;56.30;;;;;;5098665;28;20388;-74
2021/03/04 12:08:16;;;;;;;8.90;5.93;;;17.30;56.20;;;;;;5098145;28;20291;-73
2021/03/04 12:10:43;;;;;;;13.90;6.60;;;17.30;56.40;;;;;;5097910;28;20702;-73
2021/03/04 12:13:10;;;;;;;10.48;6.30;;;17.40;56.00;;;;;;5098325;28;20266;-74
2021/03/04 12:15:36;;;;;;;9.10;5.57;;;17.50;56.70;;;;;;5098712;28;20209;-74
2021/03/04 12:18:03;;;;;;;9.77;6.60;;;17.30;56.20;;;;;;5099412;28;20567;-73
2021/03/04 12:20:29;;;;;;;11.05;5.80;;;17.00;56.00;;;;;;5098753;28;20313;-74
2021/03/04 12:22:56;;;;;;;10.90;6.35;;;16.80;56.70;;;;;;5098989;28;20343;-74
2021/03/04 12:25:23;;;;;;;9.00;5.45;;;17.00;57.70;;;;;;5098422;28;20202;-74
2021/03/04 12:27:49;;;;;;;14.55;5.90;;;17.10;55.20;;;;;;5097691;28;20288;-73
2021/03/04 12:30:17;;;;;;;7.88;5.72;;;17.20;55.20;;;;;;5098795;28;20596;-74
2021/03/04 12:32:44;;;;;;;7.07;4.70;;;17.20;55.30;;;;;;5097859;28;20206;-74
2021/03/04 12:35:11;;;;;;;7.20;4.75;;;17.30;54.40;;;;;;5099490;28;20202;-74
2021/03/04 12:37:38;;;;;;;6.55;4.10;;;17.20;52.90;;;;;;5099230;28;20225;-73
2021/03/04 12:40:06;;;;;;;8.10;4.13;;;16.90;53.20;;;;;;5098944;28;20225;-74
2021/03/04 12:42:33;;;;;;;8.60;3.78;;;16.90;53.50;;;;;;5099319;28;20540;-74
2021/03/04 12:44:59;;;;;;;5.32;3.55;;;16.70;53.30;;;;;;5098582;28;20304;-74
2021/03/04 12:47:26;;;;;;;6.90;3.80;;;16.50;53.20;;;;;;5098610;28;20292;-73
2021/03/04 12:49:57;;;;;;;7.55;4.00;;;16.40;53.30;;;;;;5100313;28;20201;-74